Nearby METAR Reports

 

KLXT - Lees Summit Muni, Missouri, USA
Distance from station: E 5mi, 9km
Updated: Thu, 23-Feb-2017 11:30pm CST
Nearby thunderstorm, Partly cloudy
Nearby thunderstorm, Partly cloudy
 Wind from SSE
Wind: SSE 18 mph , 30 km/h, Gust: 26 mph , 43 km/h
Temperature: 57°F , 14°C
Dew Point: 48°F , 9°C
Humidity: 72%
Barometer: 29.33 inHg , 993.2 hPa
Summary: Nearby Thunderstorm
Clouds: Partly cloudy
Visibility: 10 miles , 16 km
Cloud details: Few Clouds 8000 ft
Partly cloudy 10000 ft
Partly cloudy 12000 ft
2017/02/24 05:30 KLXT 240530Z AUTO 15016G23KT 10SM VCTS FEW080 SCT100 SCT120 14/09 A2933 RMK AO2 PK WND 15027/0516 WSHFT 0510 LTG DSNT NE-SE RAE00B14E28 P0001 T01440094
KMKC - Kansas City/Dntn, Missouri, USA
Distance from station: NW 12mi, 19km
Updated: Thu, 23-Feb-2017 11:46pm CST
Overcast
Overcast
 Wind from NNW
Wind: NNW 17 mph , 28 km/h, Gust: 26 mph , 43 km/h
Temperature: 52°F , 11°C
Dew Point: 48°F , 9°C
Humidity: 88%
Barometer: 29.41 inHg , 995.9 hPa
Clouds: Overcast
Visibility: 7 miles , 11 km
Cloud details: Mostly cloudy 1100 ft
Overcast 2100 ft
2017/02/24 05:46 KMKC 240546Z AUTO 33015G23KT 7SM BKN011 OVC021 11/09 A2941 RMK AO2 WSHFT 0511 LTG DSNT E AND SE T01060089
 
KIXD - Olathe/Industria, Kansas, USA
Distance from station: WSW 25mi, 41km
Updated: Thu, 23-Feb-2017 11:17pm CST
Mist, Mostly cloudy
Mist, Mostly cloudy
 Wind from WNW
Wind: WNW 20 mph , 31 km/h, Gust: 30 mph , 48 km/h
Temperature: 46°F , 8°C
Wind Chill: 38°F , 3°C
Dew Point: 45°F , 7°C
Humidity: 93%
Barometer: 29.42 inHg , 996.3 hPa
Summary: Mist
Clouds: Mostly cloudy
Visibility: 6 miles , 10 km
Cloud details: Mostly cloudy 800 ft
2017/02/24 05:17 KIXD 240517Z AUTO 30017G26KT 6SM BR BKN008 08/07 A2942 RMK AO2 PK WND 30026/0509 WSHFT 0452 LTG DSNT E AND SE CIG 007V012 T00830072
KMCI - Kansas City/Intl, Missouri, USA
Distance from station: NW 26mi, 42km
Updated: Thu, 23-Feb-2017 10:53pm CST
Mist, Overcast
Mist, Overcast
 Wind from NNW
Wind: NNW 9 mph , 15 km/h
Temperature: 48°F , 9°C
Wind Chill: 44°F , 7°C
Dew Point: 46°F , 8°C
Humidity: 94%
Barometer: 29.38 inHg , 994.9 hPa
Summary: Mist
Clouds: Overcast
Visibility: 5 miles , 8 km
Cloud details: Overcast 600 ft
2017/02/24 04:53 KMCI 240453Z 33008KT 5SM BR OVC006 09/08 A2938 RMK AO2 SLP947 T00940083
 
KRCM - Warrensburg Skyh, Missouri, USA
Distance from station: ESE 38mi, 62km
Updated: Thu, 23-Feb-2017 11:55pm CST
Mostly cloudy
Mostly cloudy
 Wind from calm
Wind: Calm
Temperature: 55°F , 13°C
Dew Point: 46°F , 8°C
Humidity: 72%
Barometer: 29.36 inHg , 994.2 hPa
Clouds: Mostly cloudy
Visibility: 10 miles , 16 km
Cloud details: Mostly cloudy 11000 ft
2017/02/24 05:55 KRCM 240555Z AUTO 00000KT 10SM BKN110 13/08 A2936 RMK AO2 LTG DSNT NE AND NW
KLWC - Lawrence, Kansas, USA
Distance from station: W 40mi, 65km
Updated: Thu, 23-Feb-2017 11:22pm CST
Mist, Overcast
Mist, Overcast
 Wind from NW
Wind: NW 22 mph , 35 km/h, Gust: 28 mph , 44 km/h
Temperature: 48°F , 9°C
Wind Chill: 41°F , 5°C
Dew Point: 46°F , 8°C
Humidity: 94%
Barometer: 29.46 inHg , 997.6 hPa
Summary: Mist
Clouds: Overcast
Visibility: 6 miles , 10 km
Cloud details: Overcast 900 ft
2017/02/24 05:22 KLWC 240522Z AUTO 31019G24KT 6SM BR OVC009 09/08 A2946 RMK AO2 PK WND 31027/0504 CIG 008V012 T00940078
 
KSZL - Whiteman Afb, Missouri, USA
Distance from station: ESE 53mi, 86km
Updated: Thu, 23-Feb-2017 11:39pm CST
Nearby thunderstorm, Mostly cloudy
Nearby thunderstorm, Mostly cloudy
 Wind from SW
Wind: SW 6 mph , 9 km/h
Temperature: 59°F , 15°C
Dew Point: 59°F , 15°C
Humidity: 100%
Barometer: 29.37 inHg , 994.6 hPa
Summary: Nearby Thunderstorm
Clouds: Mostly cloudy
Visibility: 10 miles , 16 km
Cloud details: Mostly cloudy 11000 ft
Mostly cloudy 23000 ft
2017/02/24 05:39 KSZL 240539Z 22005KT 10SM VCTS BKN110CB BKN230 15/15 A2937 RMK AO2A PRESRR SLP945
KSTJ - St. Joseph, Missouri, USA
Distance from station: NNW 59mi, 95km
Updated: Thu, 23-Feb-2017 11:17pm CST
Light rain, Mist, Overcast
Light rain, Mist, Overcast
 Wind from NW
Wind: NW 26 mph , 43 km/h, Gust: 36 mph , 57 km/h
Temperature: 46°F , 8°C
Wind Chill: 37°F , 3°C
Dew Point: 46°F , 8°C
Humidity: 100%
Barometer: 29.49 inHg , 998.6 hPa
Summary: Light rain, Mist
Clouds: Overcast
Visibility: 2 miles , 3 km
Cloud details: Mostly cloudy 600 ft
Overcast 1100 ft
2017/02/24 05:17 KSTJ 240517Z AUTO 31023G31KT 2SM -RA BR BKN006 OVC011 08/08 A2949 RMK AO2 PK WND 31031/0516 RAB0457 CIG 003V008 P0001 T00780078
 
KGLY - Clinton, Missouri, USA
Distance from station: SE 61mi, 98km
Updated: Thu, 23-Feb-2017 11:35pm CST
Partly cloudy
Partly cloudy
 Wind from calm
Wind: Calm
Temperature: 63°F , 17°C
Dew Point: 50°F , 10°C
Humidity: 64%
Barometer: 29.40 inHg , 995.6 hPa
Clouds: Partly cloudy
Visibility: 10 miles , 16 km
Cloud details: Few Clouds 7500 ft
Partly cloudy 12000 ft
2017/02/24 05:35 KGLY 240535Z AUTO 00000KT 10SM FEW075 SCT120 17/10 A2940 RMK AO2
KFOE - Topeka/Forbes, Kansas, USA
Distance from station: W 64mi, 103km
Updated: Thu, 23-Feb-2017 11:18pm CST
Light rain, Mist, Overcast
Light rain, Mist, Overcast
 Wind from NNW
Wind: NNW 26 mph , 43 km/h, Gust: 33 mph , 54 km/h
Temperature: 45°F , 7°C
Wind Chill: 36°F , 2°C
Dew Point: 41°F , 5°C
Humidity: 87%
Barometer: 29.49 inHg , 998.6 hPa
Summary: Light rain, Mist
Clouds: Overcast
Visibility: 4 miles , 6 km
Cloud details: Overcast 900 ft
2017/02/24 05:18 KFOE 240518Z AUTO 34023G29KT 4SM -RA BR OVC009 07/05 A2949 RMK AO2 PK WND 35032/0501 CIG 006V011 P0000 T00670050
 
KDMO - Sedalia, Missouri, USA
Distance from station: ESE 72mi, 116km
Updated: Thu, 23-Feb-2017 11:37pm CST
Partly cloudy
Partly cloudy
 Wind from SW
Wind: SW 7 mph , 11 km/h
Temperature: 66°F , 19°C
Dew Point: 52°F , 11°C
Humidity: 60%
Barometer: 29.40 inHg , 995.6 hPa
Clouds: Partly cloudy
Visibility: 10 miles , 16 km
Cloud details: Few Clouds 8000 ft
Partly cloudy 11000 ft
2017/02/24 05:37 KDMO 240537Z AUTO 22006KT 10SM FEW080 SCT110 19/11 A2940 RMK AO2 PK WND 22031/0519 LTG DSNT W AND NW RAB20E34 TSB16E31 PRESFR P0001 T01890106
KCDJ - Chillicothe, Missouri, USA
Distance from station: NE 74mi, 120km
Updated: Thu, 23-Feb-2017 10:52pm CST

 Wind from NE
Wind: NE 7 mph , 11 km/h
Temperature: 50°F , 10°C
Wind Chill: 47°F , 8°C
Dew Point: 48°F , 9°C
Humidity: 94%
Barometer: 29.37 inHg , 994.6 hPa
2017/02/24 04:52 KCDJ 240452Z AUTO 05006KT 10/09 A2937 RMK AO1 SLP950 T01000089 $
 
KFNB - Falls City/Brenn, Nebraska, USA
Distance from station: NW 96mi, 154km
Updated: Thu, 23-Feb-2017 11:35pm CST
Mostly cloudy
Mostly cloudy
 Wind from NNW
Wind: NNW 15 mph , 24 km/h, Gust: 23 mph , 37 km/h
Temperature: 39°F , 4°C
Wind Chill: 31°F , -1°C
Dew Point: 39°F , 4°C
Humidity: 100%
Barometer: 29.50 inHg , 999 hPa
Clouds: Mostly cloudy
Visibility: 10 miles , 16 km
Cloud details: Partly cloudy 4500 ft
Mostly cloudy 7500 ft
2017/02/24 05:35 KFNB 240535Z AUTO 34013G20KT 10SM SCT045 BKN075 04/04 A2950 RMK AO2 PK WND 32036/0455 WSHFT 0457 LTG DSNT N AND NE RAE33 P0000 T00440044
KVER - Boonville, Missouri, USA
Distance from station: E 96mi, 154km
Updated: Thu, 23-Feb-2017 11:35pm CST
Clear
Clear
 Wind from S
Wind: S 14 mph , 22 km/h
Temperature: 64°F , 18°C
Dew Point: 54°F , 12°C
Humidity: 68%
Barometer: 29.42 inHg , 996.3 hPa
Clouds: Clear
Visibility: 10 miles , 16 km
2017/02/24 05:35 KVER 240535Z AUTO 17012KT 10SM CLR 18/12 A2942 RMK AO2 T01790117